Time;durP1;ratioP1;P1;durP2;ratioP2;P2;SDS_P1;SDS_P2;PMS_P1;PMS_P2;Temp;Humidity;BMP_temperature;BMP_pressure;BME280_temperature;BME280_humidity;BME280_pressure;Samples;Min_cycle;Max_cycle;Signal;HPM_P1;HPM_P2
2022/02/05 00:00:38;;;;;;;0.55;0.55;;;4.70;99.90;;;;;;5068084;28;20528;-65
2022/02/05 00:03:27;;;;;;;0.10;0.10;;;4.60;99.90;;;;;;5052828;28;20126;-65
2022/02/05 00:05:57;;;;;;;0.10;0.10;;;4.60;99.90;;;;;;5052646;28;20043;-67
2022/02/05 00:20:02;;;;;;;0.10;0.10;;;4.60;99.90;;;;;;5052534;28;20037;-65
2022/02/05 00:43:08;;;;;;;0.00;0.00;;;4.20;99.90;;;;;;5052326;28;20025;-65
2022/02/05 00:45:38;;;;;;;0.05;0.05;;;4.20;99.90;;;;;;5051995;28;20032;-65
2022/02/05 00:48:04;;;;;;;0.10;0.10;;;4.10;99.90;;;;;;5067738;28;20043;-65
2022/02/05 00:50:33;;;;;;;0.10;0.10;;;4.10;99.90;;;;;;5067259;28;20036;-65
2022/02/05 00:53:44;;;;;;;0.10;0.10;;;4.00;99.90;;;;;;5051744;28;20063;-65
2022/02/05 00:55:55;;;;;;;0.30;0.30;;;3.90;99.90;;;;;;5045960;28;20102;-65
2022/02/05 00:58:21;;;;;;;0.05;0.05;;;3.90;99.90;;;;;;5051790;28;20044;-66
2022/02/05 01:00:47;;;;;;;0.10;0.10;;;4.00;99.90;;;;;;5067206;28;20025;-65
2022/02/05 01:03:13;;;;;;;0.10;0.10;;;3.90;99.90;;;;;;5051613;28;20445;-65
2022/02/05 01:05:38;;;;;;;0.00;0.00;;;3.80;99.90;;;;;;5051605;28;20029;-65
2022/02/05 01:08:05;;;;;;;0.10;0.10;;;3.80;99.90;;;;;;5050634;28;20217;-65
2022/02/05 01:10:31;;;;;;;0.10;0.10;;;3.80;99.90;;;;;;5066861;28;20398;-65
2022/02/05 01:13:07;;;;;;;0.00;0.00;;;3.70;99.90;;;;;;5051871;28;20033;-65
2022/02/05 01:15:40;;;;;;;0.00;0.00;;;3.80;99.90;;;;;;5067041;28;20025;-65
2022/02/05 01:18:08;;;;;;;0.10;0.10;;;3.90;99.90;;;;;;5050537;28;20044;-65
2022/02/05 01:21:03;;;;;;;0.00;0.00;;;3.90;99.90;;;;;;5051388;28;20086;-65
2022/02/05 01:23:35;;;;;;;;;;;3.80;99.90;;;;;;5063946;28;20051;-65
2022/02/05 01:26:13;;;;;;;0.00;0.00;;;3.70;99.90;;;;;;5035260;28;19919;-65
2022/02/05 01:28:41;;;;;;;0.10;0.10;;;3.60;99.90;;;;;;5066793;28;20505;-65
2022/02/05 01:31:07;;;;;;;0.00;0.00;;;3.70;99.90;;;;;;5051721;28;20565;-65
2022/02/05 01:33:52;;;;;;;0.10;0.10;;;3.60;99.90;;;;;;5050930;28;20095;-65
2022/02/05 01:36:35;;;;;;;0.00;0.00;;;3.50;99.90;;;;;;5064592;28;20462;-65
2022/02/05 01:52:30;;;;;;;0.00;0.00;;;3.20;99.90;;;;;;5051234;28;20083;-65
2022/02/05 01:58:07;;;;;;;0.00;0.00;;;3.40;99.90;;;;;;5051305;28;20033;-65
2022/02/05 02:07:02;;;;;;;0.10;0.10;;;3.30;99.90;;;;;;5066024;28;20485;-65
2022/02/05 02:11:52;;;;;;;0.00;0.00;;;3.20;99.90;;;;;;5067835;28;20392;-65
2022/02/05 02:19:38;;;;;;;0.10;0.10;;;3.10;99.90;;;;;;5054951;28;20021;-66
2022/02/05 02:22:12;;;;;;;0.10;0.10;;;3.00;99.90;;;;;;5055108;28;20033;-65
2022/02/05 02:30:09;;;;;;;0.03;0.03;;;3.10;99.90;;;;;;5054615;28;20086;-66
2022/02/05 02:32:39;;;;;;;0.00;0.00;;;3.10;99.90;;;;;;5069569;28;20052;-65
2022/02/05 02:35:11;;;;;;;0.38;0.35;;;3.10;99.90;;;;;;5053174;28;20033;-66
2022/02/05 02:37:47;;;;;;;0.00;0.00;;;3.20;99.90;;;;;;5069553;28;20040;-65
2022/02/05 02:42:47;;;;;;;0.10;0.10;;;3.20;99.90;;;;;;5054095;28;20508;-66
2022/02/05 02:45:13;;;;;;;0.10;0.10;;;3.20;99.90;;;;;;5054237;28;20061;-66
2022/02/05 02:47:42;;;;;;;0.00;0.00;;;3.10;99.90;;;;;;5053948;28;20057;-65
2022/02/05 02:50:30;;;;;;;1.75;1.58;;;3.30;99.90;;;;;;5069510;28;20040;-64
2022/02/05 02:58:42;;;;;;;0.10;0.10;;;3.30;99.90;;;;;;5048887;28;20052;-65
2022/02/05 03:01:08;;;;;;;0.05;0.05;;;3.30;99.90;;;;;;5054156;28;20025;-66
2022/02/05 03:03:34;;;;;;;0.10;0.10;;;3.10;99.90;;;;;;5068939;28;20477;-65
2022/02/05 03:06:00;;;;;;;0.10;0.10;;;3.20;99.90;;;;;;5069124;28;20029;-65
2022/02/05 03:08:25;;;;;;;0.10;0.10;;;3.10;99.90;;;;;;5053787;28;20122;-65
2022/02/05 03:10:51;;;;;;;0.10;0.10;;;3.20;99.90;;;;;;5068969;28;20149;-65
2022/02/05 03:13:17;;;;;;;0.10;0.10;;;3.20;99.90;;;;;;5069036;28;20040;-64
2022/02/05 03:15:43;;;;;;;0.00;0.00;;;3.20;99.90;;;;;;5053761;28;20029;-64
2022/02/05 03:18:14;;;;;;;0.10;0.10;;;3.10;99.90;;;;;;5052604;28;20056;-65
2022/02/05 03:20:40;;;;;;;0.10;0.10;;;3.00;99.90;;;;;;5052263;28;20186;-65
2022/02/05 03:23:06;;;;;;;1.80;1.20;;;3.00;99.90;;;;;;5053714;28;20044;-65
2022/02/05 03:25:34;;;;;;;0.22;0.22;;;3.00;99.90;;;;;;5052178;28;20033;-65
2022/02/05 03:28:01;;;;;;;0.00;0.00;;;2.90;99.90;;;;;;5069008;28;20056;-65
2022/02/05 03:30:28;;;;;;;0.00;0.00;;;2.90;99.90;;;;;;5053380;28;20028;-65
2022/02/05 03:32:55;;;;;;;0.05;0.05;;;2.90;99.90;;;;;;5053134;28;20122;-65
2022/02/05 03:35:22;;;;;;;0.10;0.10;;;2.90;99.90;;;;;;5053507;28;20083;-65
2022/02/05 03:37:48;;;;;;;0.10;0.10;;;2.80;99.90;;;;;;5053165;28;20033;-65
2022/02/05 03:40:13;;;;;;;0.30;0.22;;;2.90;99.90;;;;;;5053419;28;20039;-65
2022/02/05 03:42:39;;;;;;;0.30;0.30;;;2.90;99.90;;;;;;5053227;28;20127;-66
2022/02/05 03:45:05;;;;;;;0.00;0.00;;;2.80;99.90;;;;;;5053403;28;20057;-66
2022/02/05 03:47:33;;;;;;;0.10;0.10;;;2.80;99.90;;;;;;5053030;28;20061;-66
2022/02/05 03:50:00;;;;;;;0.10;0.10;;;2.70;99.90;;;;;;5052800;28;20421;-66
2022/02/05 03:52:26;;;;;;;0.00;0.00;;;2.70;99.90;;;;;;5053020;28;20044;-65
2022/02/05 03:54:51;;;;;;;0.20;0.20;;;2.70;99.90;;;;;;5053032;28;20017;-65
2022/02/05 03:57:17;;;;;;;0.10;0.10;;;2.80;99.90;;;;;;5053221;28;20108;-66
2022/02/05 03:59:43;;;;;;;0.52;0.52;;;2.70;99.90;;;;;;5053000;28;20457;-65
2022/02/05 04:02:09;;;;;;;0.10;0.10;;;2.60;99.90;;;;;;5053134;28;20064;-66
2022/02/05 04:04:35;;;;;;;0.20;0.20;;;2.70;99.90;;;;;;5052943;28;20293;-66
2022/02/05 04:07:02;;;;;;;0.10;0.10;;;2.70;99.90;;;;;;5052615;28;20033;-66
2022/02/05 04:09:36;;;;;;;0.70;0.70;;;2.60;99.90;;;;;;5053103;28;20051;-66
2022/02/05 04:17:29;;;;;;;0.00;0.00;;;2.70;99.90;;;;;;5052651;28;20039;-65
2022/02/05 04:19:55;;;;;;;0.10;0.10;;;2.60;99.90;;;;;;5052371;28;20033;-65
2022/02/05 04:22:21;;;;;;;0.10;0.10;;;2.70;99.90;;;;;;5052670;28;20110;-65
2022/02/05 04:24:47;;;;;;;0.10;0.10;;;2.70;99.90;;;;;;5067886;28;20029;-66
2022/02/05 04:27:14;;;;;;;0.10;0.10;;;2.70;99.90;;;;;;5052274;28;20115;-66
2022/02/05 04:29:40;;;;;;;0.10;0.10;;;2.80;99.90;;;;;;5051993;28;20124;-65
2022/02/05 04:32:07;;;;;;;0.10;0.10;;;2.80;99.90;;;;;;5052387;28;20083;-65
2022/02/05 04:34:33;;;;;;;0.10;0.10;;;2.80;99.90;;;;;;5050792;28;20124;-65
2022/02/05 04:37:02;;;;;;;0.00;0.00;;;2.70;99.90;;;;;;5067390;28;20029;-66
2022/02/05 04:39:28;;;;;;;0.40;0.40;;;2.70;99.90;;;;;;5067152;28;20466;-66
2022/02/05 04:42:02;;;;;;;0.10;0.10;;;2.70;99.90;;;;;;5052031;28;20037;-65
2022/02/05 04:57:42;;;;;;;0.00;0.00;;;2.90;99.90;;;;;;5067435;28;20033;-64
2022/02/05 05:02:46;;;;;;;0.05;0.05;;;2.90;99.90;;;;;;5051792;28;20021;-65
2022/02/05 05:13:33;;;;;;;0.10;0.10;;;2.90;99.90;;;;;;5051902;28;20033;-65
2022/02/05 05:21:12;;;;;;;0.10;0.10;;;2.90;99.90;;;;;;5051919;28;20055;-65
2022/02/05 05:23:39;;;;;;;0.00;0.00;;;2.90;99.90;;;;;;5051620;28;20029;-65
2022/02/05 05:26:05;;;;;;;0.20;0.20;;;2.80;99.90;;;;;;5066545;28;20064;-65
2022/02/05 05:28:31;;;;;;;0.35;0.35;;;2.80;99.90;;;;;;5050229;28;20185;-65
2022/02/05 05:30:56;;;;;;;0.00;0.00;;;2.80;99.90;;;;;;5051617;28;20526;-65
2022/02/05 05:33:22;;;;;;;0.00;0.00;;;2.70;99.90;;;;;;5051242;28;20150;-65
2022/02/05 05:35:48;;;;;;;0.20;0.20;;;2.70;99.90;;;;;;5051416;28;20036;-66
2022/02/05 05:38:14;;;;;;;0.10;0.10;;;2.70;99.90;;;;;;5067157;28;20632;-65
2022/02/05 05:40:42;;;;;;;0.10;0.10;;;2.80;99.90;;;;;;5052843;28;20110;-65
2022/02/05 05:43:20;;;;;;;0.13;0.13;;;2.70;99.90;;;;;;5070623;28;20062;-66
2022/02/05 05:48:42;;;;;;;0.22;0.22;;;2.60;99.90;;;;;;5069657;28;20035;-65
2022/02/05 05:51:08;;;;;;;3.65;3.35;;;2.50;99.90;;;;;;5070800;28;20099;-65
2022/02/05 05:53:34;;;;;;;0.10;0.10;;;2.50;99.90;;;;;;5070712;28;20501;-65
2022/02/05 05:56:02;;;;;;;0.10;0.10;;;2.50;99.90;;;;;;5070516;28;20072;-65
2022/02/05 05:58:28;;;;;;;0.10;0.10;;;2.50;99.90;;;;;;5055449;28;20067;-65
2022/02/05 06:00:55;;;;;;;0.10;0.10;;;2.50;99.90;;;;;;5055008;28;20441;-65
2022/02/05 06:03:21;;;;;;;0.00;0.00;;;2.50;99.90;;;;;;5055326;28;20033;-65
2022/02/05 06:05:47;;;;;;;0.05;0.05;;;2.40;99.90;;;;;;5070617;28;20021;-65
2022/02/05 06:08:15;;;;;;;0.00;0.00;;;2.50;99.90;;;;;;5055091;28;20033;-64
2022/02/05 06:10:43;;;;;;;0.10;0.10;;;2.50;99.90;;;;;;5055193;28;20154;-66
2022/02/05 06:13:10;;;;;;;0.10;0.10;;;2.50;99.90;;;;;;5054852;28;20494;-64
2022/02/05 06:15:38;;;;;;;0.17;0.17;;;2.50;99.90;;;;;;5054763;28;20028;-64
2022/02/05 06:18:04;;;;;;;0.10;0.10;;;2.50;99.90;;;;;;5069751;28;20489;-64
2022/02/05 06:20:30;;;;;;;1.10;0.80;;;2.50;99.90;;;;;;5054664;28;20029;-64
2022/02/05 06:22:56;;;;;;;0.90;0.90;;;2.40;99.90;;;;;;5054613;28;20393;-64
2022/02/05 06:25:21;;;;;;;0.45;0.45;;;2.40;99.90;;;;;;5070018;28;20142;-64
2022/02/05 06:27:47;;;;;;;0.00;0.00;;;2.40;99.90;;;;;;5070010;28;20178;-66
2022/02/05 06:30:14;;;;;;;0.10;0.10;;;2.50;99.90;;;;;;5053464;28;20508;-65
2022/02/05 06:32:41;;;;;;;0.10;0.10;;;2.50;99.90;;;;;;5050970;28;20459;-67
2022/02/05 06:35:08;;;;;;;0.00;0.00;;;2.40;99.90;;;;;;5052172;28;20030;-67
2022/02/05 06:37:34;;;;;;;0.00;0.00;;;2.00;99.90;;;;;;5054747;28;20040;-65
2022/02/05 06:40:02;;;;;;;0.10;0.10;;;1.70;99.90;;;;;;5069189;28;20503;-66
2022/02/05 06:42:27;;;;;;;0.10;0.10;;;1.50;99.90;;;;;;5054342;28;20037;-65
2022/02/05 06:44:53;;;;;;;0.40;0.40;;;1.40;99.90;;;;;;5054030;28;20029;-65
2022/02/05 06:47:19;;;;;;;0.10;0.10;;;1.30;99.90;;;;;;5053943;28;20394;-66
2022/02/05 06:49:44;;;;;;;0.10;0.10;;;1.10;99.90;;;;;;5054452;28;20044;-66
2022/02/05 06:52:10;;;;;;;1.80;1.25;;;1.00;99.90;;;;;;5053982;28;20108;-64
2022/02/05 06:54:36;;;;;;;0.30;0.30;;;0.90;99.90;;;;;;5054375;28;20029;-64
2022/02/05 06:57:03;;;;;;;0.10;0.10;;;1.00;99.90;;;;;;5054137;28;20086;-71
2022/02/05 06:59:29;;;;;;;0.45;0.45;;;1.10;99.90;;;;;;5054155;28;20440;-63
2022/02/05 07:01:55;;;;;;;0.63;0.63;;;1.10;99.90;;;;;;5054069;28;20104;-63
2022/02/05 07:04:26;;;;;;;0.55;0.55;;;1.00;99.90;;;;;;5053408;28;20029;-64
2022/02/05 07:06:54;;;;;;;0.20;0.20;;;1.00;99.90;;;;;;5052619;28;20073;-63
2022/02/05 07:09:22;;;;;;;8.70;3.60;;;1.10;99.90;;;;;;5053992;28;20037;-64
2022/02/05 07:11:48;;;;;;;0.10;0.10;;;1.10;99.90;;;;;;5053753;28;20060;-64
2022/02/05 07:14:17;;;;;;;0.10;0.10;;;1.20;99.90;;;;;;5053845;28;20656;-63
2022/02/05 07:16:52;;;;;;;0.10;0.10;;;1.30;99.90;;;;;;5069016;28;20037;-65
2022/02/05 07:19:30;;;;;;;0.00;0.00;;;1.40;99.90;;;;;;5069179;28;20374;-64
2022/02/05 07:21:56;;;;;;;0.10;0.10;;;1.40;99.90;;;;;;5051916;28;20029;-64
2022/02/05 07:24:36;;;;;;;0.10;0.10;;;1.30;99.90;;;;;;5053421;28;20033;-65
2022/02/05 07:29:54;;;;;;;0.20;0.20;;;1.20;99.90;;;;;;5034598;28;20045;-64
2022/02/05 07:32:22;;;;;;;0.10;0.10;;;1.30;99.90;;;;;;5053156;28;20036;-64
2022/02/05 07:34:51;;;;;;;0.65;0.65;;;1.20;99.90;;;;;;5068265;28;20151;-63
2022/02/05 07:37:17;;;;;;;0.38;0.38;;;1.20;99.90;;;;;;5068519;28;20370;-63
2022/02/05 07:39:48;;;;;;;0.60;0.30;;;1.40;99.90;;;;;;5053194;28;20029;-64
2022/02/05 07:42:18;;;;;;;1.33;1.23;;;1.50;99.90;;;;;;5053418;28;20029;-64
2022/02/05 07:44:48;;;;;;;0.10;0.10;;;1.70;99.90;;;;;;5053397;28;20326;-64
2022/02/05 07:47:16;;;;;;;0.10;0.10;;;1.60;99.90;;;;;;5053120;28;20047;-65
2022/02/05 07:49:43;;;;;;;0.10;0.10;;;1.60;99.90;;;;;;5053363;28;20029;-64
2022/02/05 07:52:12;;;;;;;0.10;0.10;;;1.60;99.90;;;;;;5053126;28;20044;-65
2022/02/05 07:54:39;;;;;;;0.25;0.25;;;1.70;99.90;;;;;;5053029;28;20025;-64
2022/02/05 07:57:05;;;;;;;0.10;0.10;;;1.90;99.90;;;;;;5052930;28;20056;-63
2022/02/05 07:59:31;;;;;;;0.45;0.45;;;1.80;99.90;;;;;;5052888;28;20056;-63
2022/02/05 08:01:57;;;;;;;0.30;0.30;;;1.90;99.90;;;;;;5052423;28;20388;-63
2022/02/05 08:04:24;;;;;;;0.10;0.10;;;2.00;99.90;;;;;;5052167;28;20117;-64
2022/02/05 08:06:51;;;;;;;0.10;0.10;;;2.20;99.90;;;;;;5051970;28;20116;-64
2022/02/05 08:09:24;;;;;;;0.10;0.10;;;2.10;99.90;;;;;;5052820;28;20061;-65
2022/02/05 08:12:04;;;;;;;0.25;0.25;;;2.00;99.90;;;;;;5052472;28;20493;-65
2022/02/05 08:14:36;;;;;;;0.10;0.10;;;2.10;99.90;;;;;;5052887;28;20075;-65
2022/02/05 08:17:07;;;;;;;0.32;0.32;;;2.10;99.90;;;;;;5052577;28;20151;-65
2022/02/05 08:19:33;;;;;;;0.10;0.10;;;2.20;99.90;;;;;;5052851;28;20041;-65
2022/02/05 08:21:59;;;;;;;0.10;0.10;;;2.30;99.90;;;;;;5052352;28;20028;-65
2022/02/05 08:24:25;;;;;;;0.20;0.20;;;2.30;99.90;;;;;;5052241;28;20094;-63
2022/02/05 08:26:53;;;;;;;0.10;0.10;;;2.40;99.90;;;;;;5052420;28;20351;-63
2022/02/05 08:29:20;;;;;;;0.30;0.30;;;2.50;99.90;;;;;;5052091;28;20040;-64
2022/02/05 08:31:46;;;;;;;0.32;0.32;;;2.60;99.90;;;;;;5052450;28;20041;-64
2022/02/05 08:34:12;;;;;;;0.10;0.10;;;2.60;99.90;;;;;;5051937;28;20437;-64
2022/02/05 08:36:45;;;;;;;0.43;0.32;;;2.70;99.90;;;;;;5052431;28;20109;-65
2022/02/05 08:39:14;;;;;;;0.20;0.20;;;2.70;99.90;;;;;;5052086;28;20033;-64
2022/02/05 08:41:41;;;;;;;0.13;0.13;;;2.90;99.90;;;;;;5052196;28;20067;-70
2022/02/05 08:44:08;;;;;;;0.10;0.10;;;2.90;99.90;;;;;;5052090;28;20028;-65
2022/02/05 08:46:35;;;;;;;0.60;0.60;;;2.90;99.90;;;;;;5052279;28;20035;-68
2022/02/05 08:49:01;;;;;;;0.85;0.85;;;2.90;99.90;;;;;;5051616;28;20496;-65
2022/02/05 08:51:28;;;;;;;0.30;0.30;;;3.00;99.90;;;;;;5052129;28;20037;-66
2022/02/05 08:53:55;;;;;;;1.30;1.20;;;3.00;99.90;;;;;;5067383;28;20036;-65
2022/02/05 08:56:24;;;;;;;0.10;0.10;;;3.00;99.90;;;;;;5051905;28;20033;-65
2022/02/05 08:58:56;;;;;;;0.15;0.15;;;3.10;99.90;;;;;;5050780;28;20025;-65
2022/02/05 09:01:41;;;;;;;1.13;1.08;;;3.20;99.90;;;;;;5052146;28;20029;-67
2022/02/05 09:04:20;;;;;;;0.10;0.10;;;3.30;99.90;;;;;;5050712;28;20071;-68
2022/02/05 09:06:47;;;;;;;0.38;0.38;;;3.40;99.90;;;;;;5051721;28;20033;-69
2022/02/05 09:09:27;;;;;;;0.10;0.10;;;3.50;99.90;;;;;;5051874;28;20033;-68
2022/02/05 09:12:16;;;;;;;0.10;0.10;;;3.50;99.90;;;;;;5067110;28;20032;-68
2022/02/05 09:14:48;;;;;;;0.03;0.03;;;3.70;99.90;;;;;;5050502;28;20033;-68
2022/02/05 09:17:15;;;;;;;0.55;0.55;;;3.90;99.90;;;;;;5066852;28;20033;-69
2022/02/05 09:19:41;;;;;;;0.00;0.00;;;3.90;99.90;;;;;;5067371;28;20029;-69
2022/02/05 09:22:08;;;;;;;0.20;0.20;;;4.00;99.90;;;;;;5067208;28;20057;-70
2022/02/05 09:24:36;;;;;;;0.10;0.10;;;4.00;99.90;;;;;;5067211;28;20111;-68
2022/02/05 09:27:05;;;;;;;0.30;0.30;;;4.10;99.90;;;;;;5051575;28;20428;-69
2022/02/05 09:29:37;;;;;;;0.10;0.10;;;4.10;99.90;;;;;;5051185;28;20437;-67
2022/02/05 09:32:06;;;;;;;0.20;0.20;;;4.20;99.90;;;;;;5065967;28;20064;-68
2022/02/05 09:34:32;;;;;;;0.00;0.00;;;4.20;99.90;;;;;;5050178;28;20417;-67
2022/02/05 09:36:59;;;;;;;0.00;0.00;;;4.40;99.90;;;;;;5051461;28;20039;-67
2022/02/05 09:39:25;;;;;;;0.10;0.10;;;4.60;99.90;;;;;;5051445;28;20029;-69
2022/02/05 09:41:51;;;;;;;0.00;0.00;;;4.60;99.90;;;;;;5051857;28;20091;-69
2022/02/05 09:44:19;;;;;;;0.10;0.10;;;4.70;99.90;;;;;;5051052;28;20481;-67
2022/02/05 09:46:44;;;;;;;0.10;0.10;;;4.80;99.90;;;;;;5051491;28;20124;-67
2022/02/05 09:49:11;;;;;;;0.00;0.00;;;4.90;99.90;;;;;;5051569;28;20434;-67
2022/02/05 09:51:45;;;;;;;0.00;0.00;;;5.00;99.90;;;;;;5051571;28;20029;-68
2022/02/05 09:54:11;;;;;;;0.20;0.20;;;5.20;99.90;;;;;;5066512;28;20072;-68
2022/02/05 09:56:40;;;;;;;0.05;0.05;;;5.20;99.90;;;;;;5051625;28;20045;-68
2022/02/05 09:59:06;;;;;;;12.30;3.17;;;5.30;99.90;;;;;;5051203;28;20388;-68
2022/02/05 10:01:35;;;;;;;0.10;0.10;;;5.20;99.90;;;;;;5067040;28;20029;-68
2022/02/05 10:04:12;;;;;;;0.00;0.00;;;5.30;99.90;;;;;;5051329;28;20112;-67
2022/02/05 10:06:49;;;;;;;6.45;1.50;;;5.20;99.90;;;;;;5066016;28;20036;-69
2022/02/05 10:09:17;;;;;;;0.03;0.03;;;5.30;99.90;;;;;;5051249;28;20082;-68
2022/02/05 10:11:51;;;;;;;0.10;0.10;;;5.60;99.90;;;;;;5066160;28;20478;-68
2022/02/05 10:14:23;;;;;;;0.60;0.57;;;5.90;99.90;;;;;;5050687;28;20037;-68
2022/02/05 10:16:56;;;;;;;1.35;0.73;;;6.10;99.90;;;;;;5066436;28;20106;-68
2022/02/05 10:19:24;;;;;;;0.10;0.10;;;6.00;99.90;;;;;;5051167;28;20080;-67
2022/02/05 10:22:06;;;;;;;0.20;0.20;;;5.90;99.90;;;;;;5066492;28;20032;-68
2022/02/05 10:24:32;;;;;;;0.00;0.00;;;6.10;99.90;;;;;;5050994;28;20493;-68
2022/02/05 10:26:58;;;;;;;0.32;0.32;;;5.80;99.90;;;;;;5068313;28;20033;-68
2022/02/05 10:29:24;;;;;;;0.10;0.10;;;5.80;99.90;;;;;;5054778;28;20040;-68
2022/02/05 10:35:16;;;;;;;0.20;0.20;;;5.50;99.90;;;;;;5054877;28;20033;-68
2022/02/05 10:37:45;;;;;;;0.00;0.00;;;5.30;99.90;;;;;;5066910;28;20029;-67
2022/02/05 10:40:14;;;;;;;3.10;0.85;;;5.20;99.90;;;;;;5054213;28;20029;-67
2022/02/05 10:43:03;;;;;;;0.00;0.00;;;5.20;99.90;;;;;;5053909;28;20440;-68
2022/02/05 10:45:40;;;;;;;0.10;0.10;;;5.10;99.90;;;;;;5067771;28;20489;-67
2022/02/05 10:48:09;;;;;;;0.13;0.13;;;5.10;99.90;;;;;;5053771;28;20516;-67
2022/02/05 10:50:35;;;;;;;0.00;0.00;;;5.20;99.90;;;;;;5069550;28;20032;-67
2022/02/05 10:53:10;;;;;;;0.05;0.05;;;5.10;99.90;;;;;;5052492;28;20085;-67
2022/02/05 10:55:48;;;;;;;0.13;0.13;;;5.20;99.90;;;;;;5069501;28;20389;-68
2022/02/05 11:05:55;;;;;;;0.08;0.08;;;7.40;99.90;;;;;;5053934;28;20075;-69
2022/02/05 11:08:22;;;;;;;0.20;0.20;;;8.00;99.90;;;;;;5069450;28;20033;-69
2022/02/05 11:13:41;;;;;;;0.05;0.05;;;8.60;99.90;;;;;;5054089;28;20036;-68
2022/02/05 11:18:57;;;;;;;0.40;0.40;;;8.80;99.90;;;;;;5053513;28;20136;-68
2022/02/05 11:21:25;;;;;;;0.03;0.03;;;9.40;99.90;;;;;;5069172;28;20025;-68
2022/02/05 11:23:58;;;;;;;0.08;0.08;;;9.30;99.90;;;;;;5053896;28;20466;-69
2022/02/05 11:26:24;;;;;;;0.00;0.00;;;8.90;99.90;;;;;;5068661;28;20036;-69
2022/02/05 11:28:58;;;;;;;0.20;0.20;;;9.30;99.90;;;;;;5069316;28;20044;-68
2022/02/05 11:31:37;;;;;;;0.55;0.55;;;9.50;99.90;;;;;;5069208;28;20025;-68
2022/02/05 11:34:32;;;;;;;0.00;0.00;;;10.10;99.90;;;;;;5067637;28;20099;-68
2022/02/05 11:37:10;;;;;;;0.63;0.57;;;10.00;99.90;;;;;;5067357;28;20056;-67
2022/02/05 11:39:51;;;;;;;0.13;0.10;;;9.80;99.90;;;;;;5068111;28;20039;-67
2022/02/05 11:42:37;;;;;;;0.43;0.40;;;9.70;99.90;;;;;;5053358;28;20025;-67
2022/02/05 11:45:24;;;;;;;0.10;0.10;;;8.90;99.90;;;;;;5053355;28;20056;-68
2022/02/05 11:47:50;;;;;;;0.75;0.75;;;8.40;99.90;;;;;;5053453;28;20041;-68
2022/02/05 11:50:25;;;;;;;0.00;0.00;;;8.30;99.90;;;;;;5068834;28;20040;-67
2022/02/05 11:52:51;;;;;;;0.20;0.20;;;8.00;99.90;;;;;;5068713;28;20386;-67
2022/02/05 11:55:38;;;;;;;0.00;0.00;;;7.90;99.90;;;;;;5053133;28;20040;-67
2022/02/05 11:58:08;;;;;;;0.10;0.10;;;7.90;99.90;;;;;;5053069;28;20033;-67
2022/02/05 12:00:54;;;;;;;0.00;0.00;;;7.70;99.90;;;;;;5053223;28;20025;-68
2022/02/05 12:03:35;;;;;;;0.43;0.35;;;8.20;99.90;;;;;;5067419;28;20048;-68
2022/02/05 12:06:06;;;;;;;;;;;8.90;99.90;;;;;;5068404;28;20036;-68
2022/02/05 12:08:41;;;;;;;0.00;0.00;;;9.40;99.90;;;;;;5053231;28;19913;-68
2022/02/05 12:11:33;;;;;;;0.00;0.00;;;9.70;99.90;;;;;;5067658;28;20037;-68
2022/02/05 12:14:11;;;;;;;0.75;0.65;;;10.40;99.90;;;;;;5053072;28;20033;-68
2022/02/05 12:16:38;;;;;;;0.00;0.00;;;9.80;99.90;;;;;;5052666;28;20112;-68
2022/02/05 12:19:16;;;;;;;0.00;0.00;;;9.50;99.90;;;;;;5052637;28;20064;-68
2022/02/05 12:22:04;;;;;;;0.30;0.30;;;9.10;99.90;;;;;;5067574;28;20528;-68
2022/02/05 12:25:11;;;;;;;0.00;0.00;;;8.80;99.90;;;;;;5052350;28;20118;-67
2022/02/05 12:27:37;;;;;;;0.55;0.55;;;8.50;99.90;;;;;;5052383;28;20044;-67
2022/02/05 12:30:29;;;;;;;0.00;0.00;;;8.30;99.90;;;;;;5067948;28;20025;-67
2022/02/05 12:32:56;;;;;;;0.00;0.00;;;8.30;99.90;;;;;;5038145;28;20049;-67
2022/02/05 12:35:22;;;;;;;0.10;0.10;;;8.00;99.90;;;;;;5067574;28;20029;-67
2022/02/05 12:37:48;;;;;;;1.00;0.93;;;7.70;99.90;;;;;;5052608;28;20084;-68
2022/02/05 12:40:14;;;;;;;0.00;0.00;;;7.70;99.90;;;;;;5052284;28;20095;-67
2022/02/05 12:42:41;;;;;;;0.45;0.45;;;7.60;99.90;;;;;;5052555;28;20029;-67
2022/02/05 12:45:10;;;;;;;0.68;0.68;;;7.50;99.90;;;;;;5067358;28;20037;-67
2022/02/05 12:47:41;;;;;;;0.00;0.00;;;7.50;99.90;;;;;;5067479;28;20037;-68
2022/02/05 12:50:14;;;;;;;0.10;0.10;;;7.40;99.90;;;;;;5066365;28;20033;-68
2022/02/05 12:52:46;;;;;;;0.00;0.00;;;7.30;99.90;;;;;;5066800;28;20489;-68
2022/02/05 12:55:27;;;;;;;0.80;0.80;;;7.30;99.90;;;;;;5066594;28;20033;-67
2022/02/05 12:58:01;;;;;;;0.05;0.05;;;7.30;99.90;;;;;;5067728;28;20032;-67
2022/02/05 13:00:27;;;;;;;0.30;0.30;;;7.30;99.90;;;;;;5051979;28;20138;-67
2022/02/05 13:02:53;;;;;;;0.00;0.00;;;7.20;99.90;;;;;;5067335;28;20053;-67
2022/02/05 13:05:33;;;;;;;0.35;0.35;;;7.20;99.90;;;;;;5051879;28;20048;-66
2022/02/05 13:07:59;;;;;;;0.17;0.17;;;7.10;99.90;;;;;;5051917;28;20382;-65
2022/02/05 13:10:46;;;;;;;0.00;0.00;;;7.20;99.90;;;;;;5051560;28;20029;-65
2022/02/05 13:13:12;;;;;;;0.00;0.00;;;7.20;99.90;;;;;;5064459;28;20028;-66
2022/02/05 13:15:39;;;;;;;0.00;0.00;;;7.40;99.90;;;;;;5067086;28;20039;-65
2022/02/05 13:18:18;;;;;;;0.20;0.20;;;7.40;99.90;;;;;;5067166;28;20377;-66
2022/02/05 13:26:23;;;;;;;0.00;0.00;;;7.90;99.90;;;;;;5051876;28;20032;-65
2022/02/05 13:29:17;;;;;;;0.00;0.00;;;7.80;99.90;;;;;;5050459;28;20033;-65
2022/02/05 13:34:35;;;;;;;0.00;0.00;;;7.80;99.90;;;;;;5064376;28;20065;-66
2022/02/05 13:42:13;;;;;;;0.08;0.08;;;7.60;99.90;;;;;;5066531;28;20044;-65
2022/02/05 13:45:01;;;;;;;0.20;0.20;;;7.70;99.90;;;;;;5065742;28;20040;-65
2022/02/05 13:47:34;;;;;;;0.47;0.38;;;7.60;99.90;;;;;;5051371;28;20032;-66
2022/02/05 13:50:13;;;;;;;0.00;0.00;;;7.50;99.90;;;;;;5067004;28;20033;-66
2022/02/05 13:52:48;;;;;;;0.00;0.00;;;7.50;99.90;;;;;;5051621;28;20469;-64
2022/02/05 13:55:40;;;;;;;0.00;0.00;;;7.50;99.90;;;;;;5066416;28;20071;-65
2022/02/05 13:58:08;;;;;;;;;;;7.40;99.90;;;;;;5052149;28;20060;-64
2022/02/05 14:00:47;;;;;;;0.00;0.00;;;7.40;99.90;;;;;;5050181;28;20289;-73
2022/02/05 14:03:27;;;;;;;0.00;0.00;;;7.40;99.90;;;;;;5055216;28;20517;-64
2022/02/05 14:06:09;;;;;;;0.43;0.40;;;7.40;99.90;;;;;;5055281;28;20088;-65
2022/02/05 14:08:50;;;;;;;0.00;0.00;;;7.40;99.90;;;;;;5055546;28;20037;-66
2022/02/05 14:11:25;;;;;;;0.00;0.00;;;7.40;99.90;;;;;;5070436;28;20493;-71
2022/02/05 14:14:03;;;;;;;0.00;0.00;;;7.60;99.90;;;;;;5070997;28;20033;-70
2022/02/05 14:16:35;;;;;;;0.00;0.00;;;7.70;99.90;;;;;;5055244;28;20033;-67
2022/02/05 14:19:04;;;;;;;0.10;0.10;;;7.50;99.90;;;;;;5055333;28;20049;-64
2022/02/05 14:21:44;;;;;;;0.43;0.43;;;7.50;99.90;;;;;;5055041;28;20045;-72
2022/02/05 14:24:26;;;;;;;0.83;0.73;;;7.50;99.90;;;;;;5055218;28;20029;-64
2022/02/05 14:27:06;;;;;;;0.00;0.00;;;7.40;99.90;;;;;;5055196;28;20080;-64
2022/02/05 14:29:55;;;;;;;0.30;0.28;;;7.40;99.90;;;;;;5054635;28;20036;-64
2022/02/05 14:32:43;;;;;;;0.00;0.00;;;7.40;99.90;;;;;;5054506;28;20041;-65
2022/02/05 14:35:31;;;;;;;0.65;0.65;;;7.30;99.90;;;;;;5053568;28;20615;-64
2022/02/05 14:43:07;;;;;;;0.03;0.03;;;7.40;99.90;;;;;;5054360;28;20501;-64
2022/02/05 14:45:33;;;;;;;0.00;0.00;;;7.40;99.90;;;;;;5053623;28;20079;-64
2022/02/05 14:47:59;;;;;;;0.00;0.00;;;7.40;99.90;;;;;;5053976;28;20549;-64
2022/02/05 14:50:25;;;;;;;0.00;0.00;;;7.50;99.90;;;;;;5054016;28;20037;-66
2022/02/05 14:52:52;;;;;;;0.00;0.00;;;7.30;99.90;;;;;;5054654;28;20363;-64
2022/02/05 14:55:19;;;;;;;0.00;0.00;;;7.30;99.90;;;;;;5069636;28;20033;-64
2022/02/05 14:57:46;;;;;;;0.00;0.00;;;7.20;99.90;;;;;;5054212;28;20494;-64
2022/02/05 15:00:12;;;;;;;0.70;0.70;;;7.20;99.90;;;;;;5054144;28;20386;-64
2022/02/05 15:02:39;;;;;;;0.10;0.10;;;7.10;99.90;;;;;;5054355;28;20180;-65
2022/02/05 15:05:11;;;;;;;0.00;0.00;;;7.20;99.90;;;;;;5069694;28;20544;-65
2022/02/05 15:07:41;;;;;;;0.93;0.88;;;7.20;99.90;;;;;;5053984;28;20037;-65
2022/02/05 15:10:16;;;;;;;0.00;0.00;;;7.10;99.90;;;;;;5069593;28;20452;-65
2022/02/05 15:12:42;;;;;;;0.00;0.00;;;7.10;99.90;;;;;;5069238;28;20120;-65
2022/02/05 15:15:20;;;;;;;0.10;0.10;;;6.80;99.90;;;;;;5054186;28;20032;-65
2022/02/05 15:17:46;;;;;;;0.00;0.00;;;6.80;99.90;;;;;;5069547;28;20069;-66
2022/02/05 15:20:16;;;;;;;0.00;0.00;;;6.60;99.90;;;;;;5069743;28;20529;-66
2022/02/05 15:22:46;;;;;;;1.15;1.10;;;6.50;99.90;;;;;;5054286;28;20033;-65
2022/02/05 15:25:12;;;;;;;0.00;0.00;;;6.40;99.90;;;;;;5054239;28;20029;-65
2022/02/05 15:27:39;;;;;;;0.00;0.00;;;6.40;99.90;;;;;;5053997;28;20701;-65
2022/02/05 15:30:08;;;;;;;1.95;0.88;;;6.50;99.90;;;;;;5053778;28;20481;-65
2022/02/05 15:32:34;;;;;;;0.00;0.00;;;6.80;99.90;;;;;;5053550;28;20049;-65
2022/02/05 15:35:00;;;;;;;0.00;0.00;;;7.20;99.90;;;;;;5053594;28;20078;-65
2022/02/05 15:37:26;;;;;;;0.10;0.10;;;7.60;99.90;;;;;;5053029;28;20053;-66
2022/02/05 15:40:22;;;;;;;0.00;0.00;;;7.60;99.90;;;;;;5053593;28;20033;-64
2022/02/05 15:45:23;;;;;;;0.13;0.13;;;7.40;99.90;;;;;;5066173;28;20035;-65
2022/02/05 15:47:49;;;;;;;0.10;0.10;;;7.30;99.90;;;;;;5053193;28;20115;-66
2022/02/05 15:50:14;;;;;;;0.03;0.03;;;7.10;99.90;;;;;;5053061;28;20639;-65